Time;durP1;ratioP1;P1;durP2;ratioP2;P2;SDS_P1;SDS_P2;PMS_P1;PMS_P2;Temp;Humidity;BMP_temperature;BMP_pressure;BME280_temperature;BME280_humidity;BME280_pressure;Samples;Min_cycle;Max_cycle;Signal;HPM_P1;HPM_P2
2022/01/12 00:01:43;;;;;;;16.45;7.47;;;-1.50;99.90;;;;;;5013805;28;20033;-47
2022/01/12 00:04:12;;;;;;;13.93;8.48;;;-1.40;99.90;;;;;;5014845;28;20441;-48
2022/01/12 00:06:38;;;;;;;11.95;7.20;;;-1.40;99.90;;;;;;5014911;28;20354;-47
2022/01/12 00:09:08;;;;;;;12.43;7.60;;;-1.40;99.90;;;;;;5013226;28;20029;-47
2022/01/12 00:11:35;;;;;;;12.82;7.85;;;-1.40;99.90;;;;;;5017497;28;20671;-47
2022/01/12 00:14:00;;;;;;;9.88;6.65;;;-1.40;99.90;;;;;;5017336;28;20045;-48
2022/01/12 00:16:26;;;;;;;12.35;8.25;;;-1.50;99.90;;;;;;5015645;28;20100;-47
2022/01/12 00:18:52;;;;;;;13.32;8.40;;;-1.50;99.90;;;;;;5015370;28;20394;-47
2022/01/12 00:21:17;;;;;;;11.65;7.53;;;-1.50;99.90;;;;;;5012078;28;20029;-47
2022/01/12 00:23:43;;;;;;;10.15;7.20;;;-1.50;99.90;;;;;;5014023;28;20045;-47
2022/01/12 00:26:12;;;;;;;15.02;7.55;;;-1.50;99.90;;;;;;5014955;28;20380;-48
2022/01/12 00:34:10;;;;;;;10.70;7.65;;;-1.60;99.90;;;;;;5012894;28;20033;-47
2022/01/12 00:36:37;;;;;;;10.98;7.25;;;-1.50;99.90;;;;;;5016691;28;20037;-47
2022/01/12 00:39:06;;;;;;;13.77;8.05;;;-1.60;99.90;;;;;;5017013;28;20044;-48
2022/01/12 00:41:32;;;;;;;9.95;7.47;;;-1.60;99.90;;;;;;5018073;28;20490;-47
2022/01/12 00:43:59;;;;;;;11.65;7.53;;;-1.50;99.90;;;;;;5013465;28;20033;-47
2022/01/12 00:46:28;;;;;;;14.02;6.90;;;-1.60;99.90;;;;;;5019249;28;20217;-47
2022/01/12 00:48:56;;;;;;;11.02;7.13;;;-1.60;99.90;;;;;;5017716;28;20053;-47
2022/01/12 00:51:25;;;;;;;8.52;5.75;;;-1.50;99.90;;;;;;5011752;28;20124;-47
2022/01/12 00:53:51;;;;;;;12.48;6.75;;;-1.50;99.90;;;;;;5018820;28;20068;-47
2022/01/12 00:56:17;;;;;;;11.40;7.85;;;-1.50;99.90;;;;;;5017697;28;20073;-47
2022/01/12 00:58:42;;;;;;;15.25;8.20;;;-1.50;99.90;;;;;;5017862;28;20061;-47
2022/01/12 01:01:08;;;;;;;13.63;6.65;;;-1.60;99.90;;;;;;5016917;28;20044;-47
2022/01/12 01:03:34;;;;;;;10.38;6.72;;;-1.70;99.90;;;;;;5015449;28;20029;-47
2022/01/12 01:05:59;;;;;;;11.35;7.45;;;-1.60;99.90;;;;;;5019322;28;20061;-47
2022/01/12 01:08:25;;;;;;;14.10;7.97;;;-1.60;99.90;;;;;;5015926;28;20112;-47
2022/01/12 01:10:53;;;;;;;12.35;7.97;;;-1.60;99.90;;;;;;5017625;28;20480;-47
2022/01/12 01:13:25;;;;;;;13.35;8.25;;;-1.70;99.90;;;;;;5015039;28;20060;-47
2022/01/12 01:26:35;;;;;;;12.63;7.38;;;-1.80;99.90;;;;;;5016360;28;20072;-47
2022/01/12 01:29:00;;;;;;;12.55;6.82;;;-1.80;99.90;;;;;;5014635;28;20050;-47
2022/01/12 01:31:32;;;;;;;11.85;6.65;;;-1.70;99.90;;;;;;5014318;28;20974;-47
2022/01/12 01:34:06;;;;;;;14.13;7.22;;;-1.80;99.90;;;;;;5029439;28;20490;-47
2022/01/12 01:36:34;;;;;;;16.40;8.68;;;-1.80;99.90;;;;;;5017105;28;20033;-47
2022/01/12 01:38:59;;;;;;;13.68;7.47;;;-1.80;99.90;;;;;;5017597;28;20425;-48
2022/01/12 01:41:25;;;;;;;10.68;6.72;;;-1.70;99.90;;;;;;5016421;28;20033;-47
2022/01/12 01:53:19;;;;;;;15.85;8.63;;;-1.60;99.90;;;;;;5016869;28;20056;-47
2022/01/12 01:55:10;;;;;;;10.38;6.80;;;-1.60;99.90;;;;;;5019483;28;20080;-47
2022/01/12 01:57:36;;;;;;;13.48;7.72;;;-1.60;99.90;;;;;;5017550;28;20613;-47
2022/01/12 02:00:06;;;;;;;13.50;7.50;;;-1.60;99.90;;;;;;5017583;28;20045;-47
2022/01/12 02:02:32;;;;;;;19.15;9.05;;;-1.60;99.90;;;;;;5027724;28;20034;-49
2022/01/12 02:04:57;;;;;;;16.30;8.15;;;-1.70;99.90;;;;;;5030107;28;21301;-49
2022/01/12 02:07:24;;;;;;;13.02;8.38;;;-1.70;99.90;;;;;;5030911;28;20041;-49
2022/01/12 02:09:49;;;;;;;15.75;7.78;;;-1.70;99.90;;;;;;5027060;28;20040;-49
2022/01/12 02:12:24;;;;;;;17.65;7.82;;;-1.70;99.90;;;;;;5028897;28;20026;-49
2022/01/12 02:14:51;;;;;;;17.60;7.85;;;-1.70;99.90;;;;;;5027857;28;20352;-49
2022/01/12 02:17:21;;;;;;;18.02;8.80;;;-1.70;99.90;;;;;;5026789;28;20030;-49
2022/01/12 02:36:09;;;;;;;16.67;9.07;;;-1.60;99.90;;;;;;5029357;28;20091;-49
2022/01/12 02:41:19;;;;;;;17.60;9.25;;;-1.60;99.90;;;;;;5029245;28;20105;-49
2022/01/12 02:54:42;;;;;;;15.27;7.72;;;-1.50;99.90;;;;;;5029418;28;20037;-49
2022/01/12 02:57:08;;;;;;;18.25;8.88;;;-1.50;99.90;;;;;;5029631;28;20030;-49
2022/01/12 02:59:34;;;;;;;16.20;9.20;;;-1.50;99.90;;;;;;5026811;28;20329;-49
2022/01/12 03:02:24;;;;;;;12.70;6.85;;;-1.60;99.90;;;;;;5027426;28;20037;-49
2022/01/12 03:07:37;;;;;;;13.30;8.23;;;-1.60;99.90;;;;;;5026603;28;20089;-49
2022/01/12 03:10:05;;;;;;;15.50;7.80;;;-1.50;99.90;;;;;;5028383;28;20034;-49
2022/01/12 03:12:31;;;;;;;14.57;7.18;;;-1.50;99.90;;;;;;5027864;28;20542;-49
2022/01/12 03:14:57;;;;;;;12.02;7.43;;;-1.60;99.90;;;;;;5028471;28;20052;-49
2022/01/12 03:17:22;;;;;;;9.10;6.60;;;-1.60;99.90;;;;;;5028510;28;20068;-49
2022/01/12 03:19:48;;;;;;;16.83;7.78;;;-1.50;99.90;;;;;;5023685;28;20037;-49
2022/01/12 03:22:13;;;;;;;15.38;8.77;;;-1.60;99.90;;;;;;5031366;28;20029;-49
2022/01/12 03:24:39;;;;;;;13.55;7.65;;;-1.60;99.90;;;;;;5028275;28;20402;-49
2022/01/12 03:27:06;;;;;;;16.25;8.07;;;-1.60;99.90;;;;;;5028450;28;20393;-49
2022/01/12 03:29:32;;;;;;;14.25;7.85;;;-1.60;99.90;;;;;;5031003;28;20037;-50
2022/01/12 03:31:59;;;;;;;15.20;8.32;;;-1.60;99.90;;;;;;5027959;28;20128;-49
2022/01/12 03:34:30;;;;;;;15.47;8.67;;;-1.60;99.90;;;;;;5028050;28;20093;-49
2022/01/12 03:39:24;;;;;;;17.75;8.32;;;-1.70;99.90;;;;;;5023877;28;20044;-50
2022/01/12 03:41:49;;;;;;;16.05;8.57;;;-1.60;99.90;;;;;;5028658;28;20494;-49
2022/01/12 03:44:15;;;;;;;15.63;8.98;;;-1.50;99.90;;;;;;5024689;28;20033;-49
2022/01/12 03:46:52;;;;;;;14.95;7.43;;;-1.60;99.90;;;;;;5027452;28;20040;-49
2022/01/12 03:49:19;;;;;;;18.52;9.13;;;-1.60;99.90;;;;;;5025713;28;20025;-49
2022/01/12 03:51:45;;;;;;;17.88;9.30;;;-1.60;99.90;;;;;;5026269;28;20116;-49
2022/01/12 03:54:11;;;;;;;21.15;11.13;;;-1.70;99.90;;;;;;5027293;28;20033;-49
2022/01/12 03:56:37;;;;;;;13.98;8.55;;;-1.70;99.90;;;;;;5025667;28;20030;-49
2022/01/12 03:59:04;;;;;;;14.77;8.98;;;-1.60;99.90;;;;;;5027525;28;20140;-49
2022/01/12 04:01:29;;;;;;;19.17;9.00;;;-1.70;99.90;;;;;;5021265;28;20065;-49
2022/01/12 04:04:02;;;;;;;19.02;10.15;;;-1.70;99.90;;;;;;5020771;28;20029;-49
2022/01/12 04:09:12;;;;;;;13.48;7.30;;;-1.70;99.90;;;;;;5021521;28;20126;-49
2022/01/12 04:11:38;;;;;;;17.63;9.38;;;-1.80;99.90;;;;;;5019471;28;20041;-49
2022/01/12 04:14:04;;;;;;;14.48;7.80;;;-1.70;99.90;;;;;;5018401;28;20089;-48
2022/01/12 04:16:31;;;;;;;15.15;8.50;;;-1.60;99.90;;;;;;5023845;28;20064;-49
2022/01/12 04:18:57;;;;;;;15.10;9.15;;;-1.70;99.90;;;;;;5024114;28;20052;-49
2022/01/12 04:21:28;;;;;;;16.50;8.68;;;-1.60;99.90;;;;;;5019079;28;20034;-49
2022/01/12 04:23:54;;;;;;;13.70;8.00;;;-1.70;99.90;;;;;;5026284;28;20041;-49
2022/01/12 04:26:20;;;;;;;15.35;9.23;;;-1.70;99.90;;;;;;5026679;28;20021;-49
2022/01/12 04:28:46;;;;;;;16.85;10.38;;;-1.60;99.90;;;;;;5025505;28;20038;-49
2022/01/12 04:31:13;;;;;;;15.38;9.45;;;-1.60;99.90;;;;;;5025835;28;20095;-49
2022/01/12 04:33:40;;;;;;;22.73;10.25;;;-1.70;99.90;;;;;;5024678;28;20037;-50
2022/01/12 04:36:07;;;;;;;19.15;9.30;;;-1.60;99.90;;;;;;5027808;28;20044;-49
2022/01/12 04:38:35;;;;;;;14.35;7.53;;;-1.60;99.90;;;;;;5026203;28;20048;-49
2022/01/12 04:41:03;;;;;;;17.90;9.07;;;-1.50;99.90;;;;;;5025037;28;20044;-51
2022/01/12 04:43:29;;;;;;;12.82;7.50;;;-1.60;99.90;;;;;;5028748;28;20043;-49
2022/01/12 04:46:09;;;;;;;18.02;8.52;;;-1.60;99.90;;;;;;5025152;28;20120;-49
2022/01/12 04:49:07;;;;;;;18.77;9.40;;;-1.60;99.90;;;;;;5024508;28;20069;-49
2022/01/12 04:51:25;;;;;;;21.50;8.90;;;-1.50;99.90;;;;;;5024660;28;20037;-49
2022/01/12 04:53:52;;;;;;;14.25;7.18;;;-1.60;99.90;;;;;;5025858;28;20040;-49
2022/01/12 04:56:18;;;;;;;19.15;8.88;;;-1.50;99.90;;;;;;5025970;28;20458;-49
2022/01/12 04:58:44;;;;;;;15.75;8.18;;;-1.50;99.90;;;;;;5024734;28;20052;-50
2022/01/12 05:01:13;;;;;;;14.80;8.65;;;-1.50;99.90;;;;;;5024067;28;20049;-49
2022/01/12 05:14:25;;;;;;;11.55;7.22;;;-1.30;99.90;;;;;;5020219;28;20045;-49
2022/01/12 05:16:50;;;;;;;19.95;9.70;;;-1.30;99.90;;;;;;5022558;28;20041;-51
2022/01/12 05:19:16;;;;;;;16.58;7.82;;;-1.30;99.90;;;;;;5023950;28;20029;-49
2022/01/12 05:21:42;;;;;;;13.68;7.15;;;-1.30;99.90;;;;;;5021601;28;20494;-49
2022/01/12 05:24:10;;;;;;;13.05;8.63;;;-1.30;99.90;;;;;;5021942;28;20049;-49
2022/01/12 05:26:36;;;;;;;17.30;10.30;;;-1.30;99.90;;;;;;5025184;28;20160;-49
2022/01/12 05:29:03;;;;;;;13.15;8.63;;;-1.30;99.90;;;;;;5022320;28;20049;-49
2022/01/12 05:31:28;;;;;;;15.63;7.53;;;-1.30;99.90;;;;;;5021562;28;20041;-50
2022/01/12 05:33:58;;;;;;;14.27;7.38;;;-1.30;99.90;;;;;;5023904;28;20025;-51
2022/01/12 05:36:24;;;;;;;15.13;9.07;;;-1.20;99.90;;;;;;5023810;28;20049;-50
2022/01/12 05:38:50;;;;;;;16.33;9.23;;;-1.20;99.90;;;;;;5024632;28;20044;-49
2022/01/12 05:41:16;;;;;;;19.65;10.30;;;-1.30;99.90;;;;;;5021410;28;20162;-49
2022/01/12 05:43:45;;;;;;;12.95;7.95;;;-1.30;99.90;;;;;;5024155;28;20030;-49
2022/01/12 05:46:13;;;;;;;20.85;10.00;;;-1.40;99.90;;;;;;5022007;28;20053;-49
2022/01/12 05:51:28;;;;;;;14.43;8.43;;;-1.40;99.90;;;;;;5023682;28;20036;-49
2022/01/12 05:53:54;;;;;;;14.35;9.02;;;-1.40;99.90;;;;;;5022889;28;20038;-50
2022/01/12 05:56:19;;;;;;;19.73;9.55;;;-1.40;99.90;;;;;;5022570;28;20501;-50
2022/01/12 05:58:45;;;;;;;14.88;8.13;;;-1.40;99.90;;;;;;5018930;28;20033;-49
2022/01/12 06:01:11;;;;;;;18.48;9.90;;;-1.40;99.90;;;;;;5024028;28;20043;-49
2022/01/12 06:03:37;;;;;;;19.23;10.13;;;-1.30;99.90;;;;;;5018922;28;20133;-49
2022/01/12 06:06:02;;;;;;;14.55;8.38;;;-1.40;99.90;;;;;;5020480;28;20037;-51
2022/01/12 06:08:28;;;;;;;12.98;9.48;;;-1.30;99.90;;;;;;5023979;28;20037;-49
2022/01/12 06:10:54;;;;;;;17.08;8.20;;;-1.30;99.90;;;;;;5019894;28;20043;-49
2022/01/12 06:13:19;;;;;;;15.52;9.25;;;-1.30;99.90;;;;;;5018427;28;20038;-51
2022/01/12 06:15:45;;;;;;;14.93;8.20;;;-1.20;99.90;;;;;;5022723;28;20757;-49
2022/01/12 06:18:10;;;;;;;16.30;9.02;;;-1.20;99.90;;;;;;5019266;28;20040;-50
2022/01/12 06:20:36;;;;;;;20.33;11.45;;;-1.20;99.90;;;;;;5021063;28;20029;-51
2022/01/12 06:23:03;;;;;;;23.13;9.52;;;-1.20;99.90;;;;;;5019282;28;20283;-49
2022/01/12 06:25:28;;;;;;;22.02;11.27;;;-1.10;99.90;;;;;;5019057;28;20025;-49
2022/01/12 06:27:58;;;;;;;17.67;9.35;;;-1.20;99.90;;;;;;5024482;28;20029;-49
2022/01/12 06:32:55;;;;;;;20.42;10.10;;;-1.20;99.90;;;;;;5021753;28;20039;-51
2022/01/12 06:35:21;;;;;;;19.73;9.98;;;-1.20;99.90;;;;;;5020774;28;20715;-49
2022/01/12 06:37:48;;;;;;;21.70;10.45;;;-1.30;99.90;;;;;;5023396;28;20029;-49
2022/01/12 06:40:14;;;;;;;20.23;10.75;;;-1.20;99.90;;;;;;5016902;28;20056;-49
2022/01/12 06:42:41;;;;;;;21.48;11.00;;;-1.20;99.90;;;;;;5019910;28;20107;-49
2022/01/12 06:45:07;;;;;;;18.83;11.27;;;-1.20;99.90;;;;;;5019685;28;20037;-49
2022/01/12 06:47:33;;;;;;;20.08;11.65;;;-1.20;99.90;;;;;;5021605;28;20093;-49
2022/01/12 06:49:58;;;;;;;14.98;10.18;;;-1.20;99.90;;;;;;5022920;28;20100;-49
2022/01/12 06:52:24;;;;;;;21.13;11.52;;;-1.20;99.90;;;;;;5020288;28;20045;-49
2022/01/12 06:54:50;;;;;;;16.60;9.35;;;-1.10;99.90;;;;;;5019542;28;20454;-49
2022/01/12 06:57:17;;;;;;;20.90;9.65;;;-1.20;99.90;;;;;;5023497;28;20108;-49
2022/01/12 06:59:43;;;;;;;18.67;10.55;;;-1.10;99.90;;;;;;5019147;28;22298;-49
2022/01/12 07:02:09;;;;;;;22.90;10.13;;;-1.10;99.90;;;;;;5023053;28;20041;-49
2022/01/12 07:04:35;;;;;;;19.63;9.90;;;-1.10;99.90;;;;;;5018201;28;20036;-49
2022/01/12 07:07:02;;;;;;;25.83;9.95;;;-1.10;99.90;;;;;;5020664;28;20039;-49
2022/01/12 07:09:27;;;;;;;15.15;8.38;;;-1.10;99.90;;;;;;5017864;28;20405;-49
2022/01/12 07:11:53;;;;;;;16.98;9.30;;;-1.10;99.90;;;;;;5022494;28;20037;-49
2022/01/12 07:14:19;;;;;;;20.70;10.45;;;-1.20;99.90;;;;;;5019041;28;20033;-49
2022/01/12 07:16:44;;;;;;;22.67;12.38;;;-1.20;99.90;;;;;;5019302;28;20033;-49
2022/01/12 07:19:10;;;;;;;22.63;11.05;;;-1.20;99.90;;;;;;5016594;28;20044;-49
2022/01/12 07:21:36;;;;;;;19.38;10.75;;;-1.20;99.90;;;;;;5019644;28;20032;-49
2022/01/12 07:24:03;;;;;;;27.38;11.60;;;-1.20;99.90;;;;;;5014858;28;20065;-49
2022/01/12 07:26:28;;;;;;;16.98;10.15;;;-1.20;99.90;;;;;;5020133;28;20180;-49
2022/01/12 07:28:56;;;;;;;22.17;11.20;;;-1.20;99.90;;;;;;5020534;28;20104;-49
2022/01/12 07:31:22;;;;;;;17.27;8.88;;;-1.20;99.90;;;;;;5017344;28;20037;-49
2022/01/12 07:33:47;;;;;;;22.65;11.77;;;-1.20;99.90;;;;;;5018769;28;20075;-51
2022/01/12 07:36:14;;;;;;;22.10;11.43;;;-1.10;99.90;;;;;;5016020;28;20434;-49
2022/01/12 07:38:40;;;;;;;19.15;10.95;;;-1.10;99.90;;;;;;5015828;28;20026;-49
2022/01/12 07:41:06;;;;;;;19.10;11.02;;;-1.10;99.90;;;;;;5016449;28;20029;-50
2022/01/12 07:43:31;;;;;;;16.13;9.60;;;-1.10;99.90;;;;;;5017851;28;20037;-49
2022/01/12 07:45:57;;;;;;;19.45;9.95;;;-1.20;99.90;;;;;;5018311;28;20101;-49
2022/01/12 07:48:23;;;;;;;17.20;10.38;;;-1.30;99.90;;;;;;5018979;28;20025;-50
2022/01/12 07:50:49;;;;;;;20.35;9.73;;;-1.30;99.90;;;;;;5018429;28;20376;-50
2022/01/12 07:53:14;;;;;;;17.98;10.55;;;-1.30;99.90;;;;;;5017599;28;20037;-49
2022/01/12 07:55:40;;;;;;;18.50;11.52;;;-1.30;99.90;;;;;;5016200;28;20056;-51
2022/01/12 07:58:05;;;;;;;18.75;10.23;;;-1.20;99.90;;;;;;5015577;28;20451;-49
2022/01/12 08:00:31;;;;;;;23.10;12.20;;;-1.20;99.90;;;;;;5016572;28;20049;-49
2022/01/12 08:02:57;;;;;;;18.38;10.52;;;-1.20;99.90;;;;;;5018729;28;20036;-49
2022/01/12 08:05:23;;;;;;;20.63;10.07;;;-1.20;99.90;;;;;;5017595;28;20061;-49
2022/01/12 08:07:49;;;;;;;18.73;10.40;;;-1.20;99.90;;;;;;5016103;28;20157;-49
2022/01/12 08:10:16;;;;;;;19.83;10.20;;;-1.10;99.90;;;;;;5013649;28;20041;-50
2022/01/12 08:12:42;;;;;;;20.60;10.10;;;-1.20;99.90;;;;;;5016495;28;20092;-49
2022/01/12 08:15:09;;;;;;;23.75;12.50;;;-1.20;99.90;;;;;;5019012;28;20056;-49
2022/01/12 08:17:35;;;;;;;19.95;11.43;;;-1.20;99.90;;;;;;5017648;28;20508;-49
2022/01/12 08:20:04;;;;;;;27.98;13.07;;;-1.30;99.90;;;;;;5017643;28;20030;-49
2022/01/12 08:22:30;;;;;;;23.20;11.75;;;-1.30;99.90;;;;;;5019956;28;20026;-49
2022/01/12 08:24:56;;;;;;;21.90;10.73;;;-1.40;99.90;;;;;;5015943;28;20052;-50
2022/01/12 08:27:22;;;;;;;22.23;10.80;;;-1.40;99.90;;;;;;5020775;28;20026;-50
2022/01/12 08:29:50;;;;;;;22.25;11.88;;;-1.30;99.90;;;;;;5014202;28;20025;-49
2022/01/12 08:32:16;;;;;;;19.50;11.27;;;-1.30;99.90;;;;;;5017031;28;20092;-49
2022/01/12 08:34:42;;;;;;;20.20;9.77;;;-1.20;99.90;;;;;;5018018;28;20442;-49
2022/01/12 08:37:07;;;;;;;18.95;11.32;;;-1.20;99.90;;;;;;5015500;28;21681;-49
2022/01/12 08:39:33;;;;;;;20.13;9.30;;;-1.20;99.90;;;;;;5020382;28;20026;-49
2022/01/12 08:41:59;;;;;;;19.17;10.05;;;-1.20;99.90;;;;;;5018967;28;20030;-49
2022/01/12 08:44:25;;;;;;;15.98;9.38;;;-1.10;99.90;;;;;;5018236;28;20080;-49
2022/01/12 08:46:50;;;;;;;17.83;10.20;;;-1.10;99.90;;;;;;5020400;28;20056;-49
2022/01/12 08:49:16;;;;;;;19.48;8.85;;;-1.10;99.90;;;;;;5029781;28;20060;-49
2022/01/12 08:51:41;;;;;;;21.80;10.63;;;-1.00;99.90;;;;;;5022611;28;20112;-49
2022/01/12 08:54:07;;;;;;;22.13;10.88;;;-1.10;99.90;;;;;;5020613;28;20514;-50
2022/01/12 08:56:35;;;;;;;14.88;8.38;;;-1.00;99.90;;;;;;5015661;28;20042;-49
2022/01/12 08:59:01;;;;;;;20.92;10.98;;;-1.00;99.90;;;;;;5019807;28;20071;-51
2022/01/12 09:01:26;;;;;;;18.55;10.63;;;-1.00;99.90;;;;;;5017868;28;20033;-51
2022/01/12 09:03:52;;;;;;;18.65;9.18;;;-1.00;99.90;;;;;;5015427;28;20498;-49
2022/01/12 09:06:18;;;;;;;24.60;11.55;;;-1.00;99.90;;;;;;5015512;28;20074;-50
2022/01/12 09:08:45;;;;;;;21.02;11.75;;;-1.00;99.90;;;;;;5017240;28;20490;-51
2022/01/12 09:11:12;;;;;;;21.75;10.38;;;-0.90;99.90;;;;;;5015950;28;20034;-49
2022/01/12 09:13:38;;;;;;;23.33;10.75;;;-0.90;99.90;;;;;;5016533;28;20056;-49
2022/01/12 09:16:06;;;;;;;19.02;10.45;;;-0.90;99.90;;;;;;5014912;28;20042;-49
2022/01/12 09:18:37;;;;;;;13.38;8.52;;;-0.90;99.90;;;;;;5019238;28;20041;-49
2022/01/12 09:21:03;;;;;;;21.00;9.30;;;-0.90;99.90;;;;;;5014617;28;20482;-49
2022/01/12 09:23:29;;;;;;;16.40;9.95;;;-0.90;99.90;;;;;;5015010;28;20042;-49
2022/01/12 09:25:55;;;;;;;17.75;9.15;;;-0.90;99.90;;;;;;5013138;28;20071;-49
2022/01/12 09:28:21;;;;;;;23.20;11.50;;;-0.90;99.90;;;;;;5014166;28;20487;-50
2022/01/12 09:30:47;;;;;;;20.38;11.57;;;-0.90;99.90;;;;;;5020375;28;21343;-49
2022/01/12 09:33:12;;;;;;;15.52;8.90;;;-0.90;99.90;;;;;;5018513;28;20029;-49
2022/01/12 09:35:38;;;;;;;20.88;10.52;;;-0.90;99.90;;;;;;5016479;28;20479;-49
2022/01/12 09:38:04;;;;;;;17.58;9.95;;;-0.90;99.90;;;;;;5015686;28;20805;-49
2022/01/12 09:40:30;;;;;;;20.38;9.60;;;-0.90;99.90;;;;;;5018388;28;20071;-49
2022/01/12 09:43:03;;;;;;;20.45;10.90;;;-0.90;99.90;;;;;;5013729;28;20022;-49
2022/01/12 09:45:29;;;;;;;24.17;11.18;;;-0.90;99.90;;;;;;5019128;28;20133;-49
2022/01/12 09:47:55;;;;;;;18.42;9.48;;;-1.00;99.90;;;;;;5015553;28;20093;-50
2022/01/12 09:50:22;;;;;;;18.65;9.43;;;-1.10;99.90;;;;;;5016361;28;20030;-49
2022/01/12 09:52:48;;;;;;;20.80;10.63;;;-1.10;99.90;;;;;;5021372;28;20053;-49
2022/01/12 09:55:14;;;;;;;21.40;9.60;;;-1.10;99.90;;;;;;5016581;28;20166;-49
2022/01/12 09:57:40;;;;;;;18.92;10.20;;;-1.00;99.90;;;;;;5019442;28;20029;-50
2022/01/12 10:00:07;;;;;;;24.17;12.23;;;-1.00;99.90;;;;;;5017105;28;20037;-49
2022/01/12 10:02:33;;;;;;;21.08;10.77;;;-0.90;99.90;;;;;;5019550;28;20030;-49
2022/01/12 10:05:01;;;;;;;20.70;10.43;;;-0.80;99.90;;;;;;5021307;28;20040;-49
2022/01/12 10:07:26;;;;;;;21.27;12.20;;;-0.80;99.90;;;;;;5018035;28;20123;-50
2022/01/12 10:09:56;;;;;;;21.67;10.10;;;-0.80;99.90;;;;;;5021770;28;20112;-49
2022/01/12 10:12:24;;;;;;;18.98;9.48;;;-0.80;99.90;;;;;;5017447;28;20116;-49
2022/01/12 10:14:52;;;;;;;18.47;9.77;;;-0.80;99.90;;;;;;5015809;28;20081;-50
2022/01/12 10:17:34;;;;;;;23.08;11.55;;;-0.90;99.90;;;;;;5021482;28;20033;-50
2022/01/12 10:20:11;;;;;;;17.98;9.55;;;-0.90;99.90;;;;;;5020216;28;20431;-49
2022/01/12 10:22:43;;;;;;;20.45;8.98;;;-0.90;99.90;;;;;;5018020;28;20053;-49
2022/01/12 10:25:21;;;;;;;19.92;10.05;;;-1.00;99.90;;;;;;5017192;28;20729;-50
2022/01/12 10:27:47;;;;;;;18.33;10.20;;;-0.90;99.90;;;;;;5015941;28;20029;-49
2022/01/12 10:30:39;;;;;;;19.48;9.75;;;-0.80;99.90;;;;;;5018030;28;20483;-49
2022/01/12 10:33:09;;;;;;;21.67;11.60;;;-0.80;99.90;;;;;;5015897;28;20079;-49
2022/01/12 10:35:39;;;;;;;18.90;10.23;;;-0.80;99.90;;;;;;5020888;28;20017;-50
2022/01/12 10:38:17;;;;;;;23.98;10.43;;;-0.70;99.90;;;;;;5016524;28;20025;-49
2022/01/12 10:40:50;;;;;;;19.70;11.30;;;-0.70;99.90;;;;;;5016936;28;20171;-49
2022/01/12 10:43:34;;;;;;;22.23;9.45;;;-0.70;99.90;;;;;;5017599;28;20021;-49
2022/01/12 10:46:03;;;;;;;18.20;9.55;;;-0.60;99.90;;;;;;5018910;28;20030;-50
2022/01/12 10:48:49;;;;;;;20.88;9.65;;;-0.60;99.90;;;;;;5016950;28;20034;-49
2022/01/12 10:51:20;;;;;;;19.58;10.00;;;-0.60;99.90;;;;;;5015796;28;20041;-50
2022/01/12 10:53:46;;;;;;;22.45;11.23;;;-0.60;99.90;;;;;;5016482;28;20117;-49
2022/01/12 10:56:15;;;;;;;17.58;9.85;;;-0.60;99.90;;;;;;5017992;28;20111;-49
2022/01/12 10:58:44;;;;;;;17.52;10.02;;;-0.60;99.90;;;;;;5018945;28;20041;-49
2022/01/12 11:01:11;;;;;;;24.67;11.05;;;-0.60;99.90;;;;;;5020326;28;20403;-49
2022/01/12 11:03:38;;;;;;;18.35;10.15;;;-0.70;99.90;;;;;;5033392;28;20030;-49
2022/01/12 11:06:06;;;;;;;20.60;11.10;;;-0.60;99.90;;;;;;5021282;28;20030;-49
2022/01/12 11:08:34;;;;;;;24.23;10.60;;;-0.60;99.90;;;;;;5018918;28;20032;-50
2022/01/12 11:11:00;;;;;;;21.40;10.07;;;-0.70;99.90;;;;;;5017317;28;20123;-49
2022/01/12 11:13:27;;;;;;;25.17;14.23;;;-0.60;99.90;;;;;;5018310;28;20025;-49
2022/01/12 11:15:53;;;;;;;23.02;12.40;;;-0.60;99.90;;;;;;5019888;28;20040;-49
2022/01/12 11:18:22;;;;;;;22.17;11.40;;;-0.50;99.90;;;;;;5022007;28;20103;-49
2022/01/12 11:20:49;;;;;;;23.75;11.00;;;-0.50;99.90;;;;;;5017774;28;20018;-49
2022/01/12 11:23:17;;;;;;;14.85;7.60;;;-0.40;99.90;;;;;;5017577;28;20042;-51
2022/01/12 11:25:51;;;;;;;21.08;9.00;;;-0.40;99.90;;;;;;5020381;28;20519;-50
2022/01/12 11:28:17;;;;;;;21.80;10.43;;;-0.50;99.90;;;;;;5016990;28;20079;-49
2022/01/12 11:30:45;;;;;;;18.55;9.63;;;-0.50;99.90;;;;;;5018055;28;20221;-50
2022/01/12 11:33:12;;;;;;;20.23;10.57;;;-0.50;99.90;;;;;;5018825;28;20108;-49
2022/01/12 11:35:41;;;;;;;18.47;10.03;;;-0.60;99.90;;;;;;5017500;28;20295;-49
2022/01/12 11:38:07;;;;;;;25.25;11.45;;;-0.70;99.90;;;;;;5018459;28;20030;-49
2022/01/12 11:40:33;;;;;;;22.15;11.80;;;-0.70;99.90;;;;;;5016954;28;20052;-49
2022/01/12 11:42:58;;;;;;;21.48;10.77;;;-0.80;99.90;;;;;;5019206;28;20021;-49
2022/01/12 11:45:24;;;;;;;21.60;10.48;;;-0.80;99.90;;;;;;5019998;28;20105;-49
2022/01/12 11:47:51;;;;;;;14.63;7.88;;;-0.80;99.90;;;;;;5017718;28;20017;-49
2022/01/12 11:50:16;;;;;;;19.67;10.77;;;-0.80;99.90;;;;;;5015803;28;20033;-50
2022/01/12 11:52:42;;;;;;;26.77;11.75;;;-0.80;99.90;;;;;;5024619;28;20033;-49
2022/01/12 11:55:14;;;;;;;20.88;10.57;;;-0.80;99.90;;;;;;5014325;28;22052;-49
2022/01/12 11:57:45;;;;;;;27.20;12.38;;;-0.80;99.90;;;;;;5017236;28;20402;-49
2022/01/12 12:00:16;;;;;;;20.00;12.05;;;-0.80;99.90;;;;;;5018160;28;20038;-49
2022/01/12 12:02:51;;;;;;;20.60;11.27;;;-0.80;99.90;;;;;;5017263;28;20041;-49
2022/01/12 12:05:19;;;;;;;18.85;10.68;;;-0.90;99.90;;;;;;5016024;28;21561;-49
2022/01/12 12:08:22;;;;;;;22.17;11.25;;;-0.90;99.90;;;;;;5022378;28;20022;-49
2022/01/12 12:10:51;;;;;;;20.80;11.57;;;-0.80;99.90;;;;;;5019053;28;20091;-49
2022/01/12 12:13:21;;;;;;;26.80;11.20;;;-0.70;99.90;;;;;;5019418;28;20045;-49
2022/01/12 12:15:47;;;;;;;27.00;11.65;;;-0.70;99.90;;;;;;5016872;28;20135;-49
2022/01/12 12:18:16;;;;;;;20.52;10.63;;;-0.70;99.90;;;;;;5020864;28;20048;-49
2022/01/12 12:20:41;;;;;;;25.05;10.02;;;-0.60;99.90;;;;;;5035165;28;20117;-49
2022/01/12 12:23:07;;;;;;;23.35;11.55;;;-0.70;99.90;;;;;;5022634;28;20054;-49
2022/01/12 12:25:36;;;;;;;30.17;14.55;;;-0.70;99.90;;;;;;5036314;28;20057;-49
2022/01/12 12:28:04;;;;;;;32.40;15.13;;;-0.80;99.90;;;;;;5021604;28;20044;-49
2022/01/12 12:30:32;;;;;;;36.10;17.23;;;-0.90;99.90;;;;;;5023742;28;20075;-51
2022/01/12 12:33:04;;;;;;;29.50;13.57;;;-0.90;99.90;;;;;;5020687;28;20072;-49
2022/01/12 12:35:32;;;;;;;32.92;14.07;;;-0.90;99.90;;;;;;5024262;28;20033;-49
2022/01/12 12:38:01;;;;;;;27.45;12.85;;;-0.90;99.90;;;;;;5022346;28;20117;-50
2022/01/12 12:40:35;;;;;;;27.23;13.25;;;-1.00;99.90;;;;;;5022916;28;20115;-49
2022/01/12 12:43:08;;;;;;;32.08;13.40;;;-1.00;99.90;;;;;;5022915;28;20508;-49
2022/01/12 12:45:43;;;;;;;33.25;14.25;;;-1.00;99.90;;;;;;5022955;28;20031;-50
2022/01/12 12:48:16;;;;;;;28.58;14.38;;;-0.90;99.90;;;;;;5021366;28;20402;-49
2022/01/12 12:50:42;;;;;;;33.50;15.35;;;-0.90;99.90;;;;;;5016723;28;20552;-51
2022/01/12 12:53:08;;;;;;;33.22;15.00;;;-0.90;99.90;;;;;;5018964;28;20036;-49
2022/01/12 12:55:44;;;;;;;34.83;14.38;;;-0.90;99.90;;;;;;5016860;28;20087;-49
2022/01/12 12:58:13;;;;;;;28.33;13.98;;;-1.00;99.90;;;;;;5017362;28;20036;-49
2022/01/12 13:00:39;;;;;;;;;;;-1.00;99.90;;;;;;5016766;28;20113;-49
2022/01/12 13:03:05;;;;;;;31.05;12.18;;;-0.90;99.90;;;;;;5018532;28;20032;-50
2022/01/12 13:05:32;;;;;;;18.55;10.38;;;-0.90;99.90;;;;;;5019446;28;20028;-49
2022/01/12 13:07:58;;;;;;;20.77;11.68;;;-0.90;99.90;;;;;;5016511;28;20030;-49
2022/01/12 13:10:30;;;;;;;30.25;12.27;;;-0.90;99.90;;;;;;5018658;28;20056;-49
2022/01/12 13:13:01;;;;;;;27.55;14.55;;;-0.80;99.90;;;;;;5019885;28;20017;-50
2022/01/12 13:15:29;;;;;;;22.38;10.70;;;-0.70;99.90;;;;;;5019256;28;20044;-49
2022/01/12 13:18:10;;;;;;;26.20;12.35;;;-0.70;99.90;;;;;;5018784;28;20454;-50
2022/01/12 13:23:24;;;;;;;24.77;13.38;;;-0.70;99.90;;;;;;5017593;28;20052;-49
2022/01/12 13:25:55;;;;;;;19.90;10.65;;;-0.60;99.90;;;;;;5018934;28;20648;-49
2022/01/12 13:28:21;;;;;;;22.90;13.02;;;-0.60;99.90;;;;;;5019379;28;20075;-50
2022/01/12 13:30:51;;;;;;;22.60;12.20;;;-0.60;99.90;;;;;;5029040;28;20067;-49
2022/01/12 13:33:41;;;;;;;25.52;12.50;;;-0.60;99.90;;;;;;5016219;28;20022;-49
2022/01/12 13:36:27;;;;;;;24.77;12.07;;;-0.60;99.90;;;;;;5019469;28;20037;-50
2022/01/12 13:39:05;;;;;;;22.65;11.57;;;-0.50;99.90;;;;;;5021573;28;20123;-49
2022/01/12 13:41:42;;;;;;;24.58;12.35;;;-0.50;99.90;;;;;;5020502;28;20017;-50
2022/01/12 13:44:16;;;;;;;26.80;13.85;;;-0.40;99.90;;;;;;5020118;28;20026;-51
2022/01/12 13:47:24;;;;;;;29.50;12.50;;;-0.40;99.90;;;;;;5019217;28;20029;-49
2022/01/12 13:50:05;;;;;;;21.02;12.05;;;-0.40;99.90;;;;;;5014724;28;22394;-50
2022/01/12 13:52:30;;;;;;;27.05;13.63;;;-0.40;99.90;;;;;;5017203;28;20037;-49
2022/01/12 13:55:08;;;;;;;21.42;10.07;;;-0.40;99.90;;;;;;5019106;28;20044;-50
2022/01/12 13:57:34;;;;;;;23.27;11.80;;;-0.40;99.90;;;;;;5021307;28;20107;-50
2022/01/12 13:59:59;;;;;;;41.35;20.17;;;-0.40;99.90;;;;;;5020119;28;20494;-49